Time;durP1;ratioP1;P1;durP2;ratioP2;P2;SDS_P1;SDS_P2;PMS_P1;PMS_P2;Temp;Humidity;BMP_temperature;BMP_pressure;BME280_temperature;BME280_humidity;BME280_pressure;Samples;Min_cycle;Max_cycle;Signal;HPM_P1;HPM_P2
2022/12/13 00:01:11;;;;;;;;;;;;;;;;;;5061251;28;20094;-75
2022/12/13 00:03:37;;;;;;;;;;;;;;;;;;5058947;28;20034;-74
2022/12/13 00:06:03;;;;;;;;;;;;;;;;;;5057007;28;20318;-74
2022/12/13 00:08:29;;;;;;;;;;;;;;;;;;5061659;28;19915;-74
2022/12/13 00:10:55;;;;;;;;;;;;;;;;;;5065212;28;19965;-75
2022/12/13 00:13:21;;;;;;;;;;;;;;;;;;5059017;28;19912;-74
2022/12/13 00:15:46;;;;;;;;;;;;;;;;;;5065097;28;19912;-75
2022/12/13 00:18:12;;;;;;;;;;;;;;;;;;5067439;28;19916;-75
2022/12/13 00:20:38;;;;;;;;;;;;;;;;;;5066804;28;19908;-75
2022/12/13 00:23:04;;;;;;;;;;;;;;;;;;5060362;28;19918;-74
2022/12/13 00:25:30;;;;;;;;;;;;;;;;;;5068104;28;20283;-74
2022/12/13 00:27:56;;;;;;;;;;;;;;;;;;5061928;28;19931;-75
2022/12/13 00:30:21;;;;;;;;;;;;;;;;;;5065929;28;20668;-74
2022/12/13 00:32:47;;;;;;;;;;;;;;;;;;5056956;28;19912;-74
2022/12/13 00:35:13;;;;;;;;;;;;;;;;;;5058156;28;19915;-75
2022/12/13 00:37:39;;;;;;;;;;;;;;;;;;5067630;28;19908;-75
2022/12/13 00:40:05;;;;;;;;;;;;;;;;;;5062323;28;19997;-75
2022/12/13 00:42:31;;;;;;;;;;;;;;;;;;5065910;28;19927;-74
2022/12/13 00:44:57;;;;;;;;;;;;;;;;;;5064008;28;19911;-74
2022/12/13 00:47:22;;;;;;;;;;;;;;;;;;5066946;28;20102;-75
2022/12/13 00:49:48;;;;;;;;;;;;;;;;;;5062061;28;19951;-74
2022/12/13 00:52:14;;;;;;;;;;;;;;;;;;5066225;28;19912;-74
2022/12/13 00:54:40;;;;;;;;;;;;;;;;;;5063975;28;19905;-74
2022/12/13 00:57:06;;;;;;;;;;;;;;;;;;5060851;28;19995;-75
2022/12/13 00:59:32;;;;;;;;;;;;;;;;;;5063751;28;19995;-74
2022/12/13 01:01:58;;;;;;;;;;;;;;;;;;5058802;28;19909;-75
2022/12/13 01:04:24;;;;;;;;;;;;;;;;;;5059430;28;19908;-75
2022/12/13 01:06:50;;;;;;;;;;;;;;;;;;5062620;28;19955;-74
2022/12/13 01:09:16;;;;;;;;;;;;;;;;;;5061242;28;19905;-75
2022/12/13 01:11:41;;;;;;;;;;;;;;;;;;5064695;28;19958;-74
2022/12/13 01:14:07;;;;;;;;;;;;;;;;;;5067484;28;20266;-74
2022/12/13 01:16:33;;;;;;;;;;;;;;;;;;5058413;28;19997;-75
2022/12/13 01:18:59;;;;;;;;;;;;;;;;;;5061214;28;19915;-75
2022/12/13 01:21:25;;;;;;;;;;;;;;;;;;5063589;28;19919;-74
2022/12/13 01:23:51;;;;;;;;;;;;;;;;;;5059718;28;20068;-74
2022/12/13 01:26:17;;;;;;;;;;;;;;;;;;5066670;28;20171;-75
2022/12/13 01:28:43;;;;;;;;;;;;;;;;;;5066333;28;19912;-74
2022/12/13 01:31:08;;;;;;;;;;;;;;;;;;5056609;28;19916;-74
2022/12/13 01:33:34;;;;;;;;;;;;;;;;;;5060058;28;19912;-74
2022/12/13 01:36:01;;;;;;;;;;;;;;;;;;5064958;28;19912;-75
2022/12/13 01:38:26;;;;;;;;;;;;;;;;;;5060215;28;20525;-75
2022/12/13 01:40:58;;;;;;;;;;;;;;;;;;5065450;28;19962;-74
2022/12/13 01:43:24;;;;;;;;;;;;;;;;;;5054482;28;20019;-75
2022/12/13 01:45:50;;;;;;;;;;;;;;;;;;5065296;28;20003;-74
2022/12/13 01:48:16;;;;;;;;;;;;;;;;;;5066169;28;19916;-74
2022/12/13 01:50:42;;;;;;;;;;;;;;;;;;5056513;28;19916;-75
2022/12/13 01:53:08;;;;;;;;;;;;;;;;;;5067601;28;19957;-75
2022/12/13 01:55:34;;;;;;;;;;;;;;;;;;5067083;28;19908;-74
2022/12/13 01:57:59;;;;;;;;;;;;;;;;;;5065963;28;19916;-75
2022/12/13 02:00:25;;;;;;;;;;;;;;;;;;5067241;28;19908;-75
2022/12/13 02:02:51;;;;;;;;;;;;;;;;;;5060748;28;19932;-75
2022/12/13 02:05:18;;;;;;;;;;;;;;;;;;5063797;28;19908;-74
2022/12/13 02:07:44;;;;;;;;;;;;;;;;;;5059265;28;20013;-75
2022/12/13 02:10:09;;;;;;;;;;;;;;;;;;5062239;28;20625;-75
2022/12/13 02:12:35;;;;;;;;;;;;;;;;;;5060248;28;20367;-74
2022/12/13 02:15:01;;;;;;;;;;;;;;;;;;5063841;28;20351;-75
2022/12/13 02:17:27;;;;;;;;;;;;;;;;;;5066603;28;20271;-74
2022/12/13 02:19:53;;;;;;;;;;;;;;;;;;5062059;28;20343;-75
2022/12/13 02:22:19;;;;;;;;;;;;;;;;;;5062690;28;19916;-75
2022/12/13 02:24:44;;;;;;;;;;;;;;;;;;5059432;28;19994;-74
2022/12/13 02:27:10;;;;;;;;;;;;;;;;;;5064705;28;20298;-74
2022/12/13 02:29:36;;;;;;;;;;;;;;;;;;5065332;28;19943;-74
2022/12/13 02:32:02;;;;;;;;;;;;;;;;;;5065125;28;19912;-74
2022/12/13 02:34:28;;;;;;;;;;;;;;;;;;5061628;28;19912;-75
2022/12/13 02:36:54;;;;;;;;;;;;;;;;;;5061886;28;20016;-74
2022/12/13 02:39:20;;;;;;;;;;;;;;;;;;5066573;28;19943;-74
2022/12/13 02:41:45;;;;;;;;;;;;;;;;;;5057082;28;19955;-74
2022/12/13 02:44:11;;;;;;;;;;;;;;;;;;5062267;28;19908;-74
2022/12/13 02:46:37;;;;;;;;;;;;;;;;;;5064077;28;20002;-75
2022/12/13 02:49:03;;;;;;;;;;;;;;;;;;5067476;28;19908;-74
2022/12/13 02:51:29;;;;;;;;;;;;;;;;;;5066925;28;19924;-75
2022/12/13 02:53:55;;;;;;;;;;;;;;;;;;5060322;28;20282;-74
2022/12/13 02:56:21;;;;;;;;;;;;;;;;;;5065105;28;19913;-74
2022/12/13 02:58:46;;;;;;;;;;;;;;;;;;5070298;28;20483;-74
2022/12/13 03:01:12;;;;;;;;;;;;;;;;;;5067950;28;20551;-74
2022/12/13 03:03:38;;;;;;;;;;;;;;;;;;5068540;28;20371;-75
2022/12/13 03:08:48;;;;;;;;;;;;;;;;;;5068796;28;19931;-74
2022/12/13 03:11:14;;;;;;;;;;;;;;;;;;5066263;28;19916;-74
2022/12/13 03:13:40;;;;;;;;;;;;;;;;;;5068763;28;19913;-74
2022/12/13 03:16:06;;;;;;;;;;;;;;;;;;5061845;28;19908;-74
2022/12/13 03:18:32;;;;;;;;;;;;;;;;;;5066671;28;19927;-74
2022/12/13 03:20:58;;;;;;;;;;;;;;;;;;5068668;28;19914;-74
2022/12/13 03:23:23;;;;;;;;;;;;;;;;;;5069074;28;19919;-73
2022/12/13 03:25:49;;;;;;;;;;;;;;;;;;5065930;28;19909;-74
2022/12/13 03:28:15;;;;;;;;;;;;;;;;;;5061064;28;19991;-73
2022/12/13 03:30:41;;;;;;;;;;;;;;;;;;5067239;28;19916;-74
2022/12/13 03:33:07;;;;;;;;;;;;;;;;;;5057164;28;19913;-73
2022/12/13 03:35:33;;;;;;;;;;;;;;;;;;5054536;28;19916;-73
2022/12/13 03:38:00;;;;;;;;;;;;;;;;;;5064339;28;20050;-74
2022/12/13 03:40:26;;;;;;;;;;;;;;;;;;5066682;28;20338;-74
2022/12/13 03:42:52;;;;;;;;;;;;;;;;;;5065181;28;19951;-73
2022/12/13 03:45:19;;;;;;;;;;;;;;;;;;5067461;28;20386;-73
2022/12/13 03:47:45;;;;;;;;;;;;;;;;;;5064962;28;20389;-74
2022/12/13 03:50:11;;;;;;;;;;;;;;;;;;5061686;28;19970;-76
2022/12/13 03:52:37;;;;;;;;;;;;;;;;;;5059772;28;20382;-73
2022/12/13 03:55:03;;;;;;;;;;;;;;;;;;5062236;28;20005;-74
2022/12/13 03:57:29;;;;;;;;;;;;;;;;;;5066359;28;19915;-73
2022/12/13 03:59:54;;;;;;;;;;;;;;;;;;5063909;28;20390;-73
2022/12/13 04:02:20;;;;;;;;;;;;;;;;;;5066119;28;20371;-73
2022/12/13 04:04:46;;;;;;;;;;;;;;;;;;5059286;28;19908;-73
2022/12/13 04:07:12;;;;;;;;;;;;;;;;;;5064932;28;19915;-73
2022/12/13 04:09:38;;;;;;;;;;;;;;;;;;5063492;28;20523;-73
2022/12/13 04:14:48;;;;;;;;;;;;;;;;;;5064559;28;20381;-73
2022/12/13 04:17:14;;;;;;;;;;;;;;;;;;5058942;28;19912;-74
2022/12/13 04:19:40;;;;;;;;;;;;;;;;;;5065811;28;20002;-74
2022/12/13 04:22:06;;;;;;;;;;;;;;;;;;5060021;28;19962;-73
2022/12/13 04:24:32;;;;;;;;;;;;;;;;;;5058588;28;19923;-74
2022/12/13 04:26:57;;;;;;;;;;;;;;;;;;5066480;28;19915;-74
2022/12/13 04:29:23;;;;;;;;;;;;;;;;;;5066065;28;19912;-74
2022/12/13 04:31:49;;;;;;;;;;;;;;;;;;5063555;28;19970;-74
2022/12/13 04:34:15;;;;;;;;;;;;;;;;;;5064044;28;19961;-74
2022/12/13 04:36:41;;;;;;;;;;;;;;;;;;5066989;28;20038;-74
2022/12/13 04:39:07;;;;;;;;;;;;;;;;;;5065898;28;19965;-73
2022/12/13 04:41:32;;;;;;;;;;;;;;;;;;5057300;28;19916;-74
2022/12/13 04:43:58;;;;;;;;;;;;;;;;;;5064117;28;19908;-74
2022/12/13 04:46:24;;;;;;;;;;;;;;;;;;5065479;28;19924;-74
2022/12/13 04:48:50;;;;;;;;;;;;;;;;;;5067232;28;19916;-75
2022/12/13 04:51:16;;;;;;;;;;;;;;;;;;5065581;28;19970;-74
2022/12/13 04:53:42;;;;;;;;;;;;;;;;;;5059724;28;20003;-74
2022/12/13 04:56:07;;;;;;;;;;;;;;;;;;5066726;28;19917;-74
2022/12/13 04:58:33;;;;;;;;;;;;;;;;;;5062389;28;19912;-74
2022/12/13 05:00:59;;;;;;;;;;;;;;;;;;5066215;28;19931;-75
2022/12/13 05:03:26;;;;;;;;;;;;;;;;;;5064955;28;19908;-74
2022/12/13 05:05:52;;;;;;;;;;;;;;;;;;5056703;28;19909;-74
2022/12/13 05:08:18;;;;;;;;;;;;;;;;;;5055232;28;19909;-74
2022/12/13 05:10:44;;;;;;;;;;;;;;;;;;5057517;28;20085;-75
2022/12/13 05:13:10;;;;;;;;;;;;;;;;;;5062532;28;19921;-74
2022/12/13 05:15:35;;;;;;;;;;;;;;;;;;5065967;28;20394;-75
2022/12/13 05:18:01;;;;;;;;;;;;;;;;;;5060224;28;20536;-75
2022/12/13 05:20:27;;;;;;;;;;;;;;;;;;5055820;28;20599;-75
2022/12/13 05:22:53;;;;;;;;;;;;;;;;;;5067800;28;20278;-74
2022/12/13 05:25:22;;;;;;;;;;;;;;;;;;5059825;28;19909;-75
2022/12/13 05:27:48;;;;;;;;;;;;;;;;;;5063634;28;19909;-75
2022/12/13 05:30:14;;;;;;;;;;;;;;;;;;5056921;28;19912;-73
2022/12/13 05:32:40;;;;;;;;;;;;;;;;;;5063202;28;20003;-73
2022/12/13 05:35:06;;;;;;;;;;;;;;;;;;5063059;28;19954;-73
2022/12/13 05:37:31;;;;;;;;;;;;;;;;;;5070134;28;19920;-73
2022/12/13 05:39:57;;;;;;;;;;;;;;;;;;5064455;28;19908;-73
2022/12/13 05:42:23;;;;;;;;;;;;;;;;;;5057472;28;19908;-74
2022/12/13 05:44:49;;;;;;;;;;;;;;;;;;5056507;28;19909;-74
2022/12/13 05:47:15;;;;;;;;;;;;;;;;;;5071133;28;19961;-73
2022/12/13 05:49:41;;;;;;;;;;;;;;;;;;5076912;28;19908;-74
2022/12/13 05:52:06;;;;;;;;;;;;;;;;;;5064698;28;19987;-72
2022/12/13 05:54:32;;;;;;;;;;;;;;;;;;5066815;28;20390;-76
2022/12/13 05:56:58;;;;;;;;;;;;;;;;;;5066408;28;20351;-73
2022/12/13 05:59:24;;;;;;;;;;;;;;;;;;5065442;28;19934;-73
2022/12/13 06:01:50;;;;;;;;;;;;;;;;;;5065836;28;19908;-74
2022/12/13 06:04:16;;;;;;;;;;;;;;;;;;5069026;28;19908;-73
2022/12/13 06:06:42;;;;;;;;;;;;;;;;;;5066401;28;19955;-72
2022/12/13 06:09:07;;;;;;;;;;;;;;;;;;5065498;28;19919;-72
2022/12/13 06:11:33;;;;;;;;;;;;;;;;;;5066249;28;19920;-72
2022/12/13 06:13:59;;;;;;;;;;;;;;;;;;5069644;28;19987;-74
2022/12/13 06:16:25;;;;;;;;;;;;;;;;;;5056440;28;19920;-73
2022/12/13 06:18:51;;;;;;;;;;;;;;;;;;5064265;28;20290;-73
2022/12/13 06:21:17;;;;;;;;;;;;;;;;;;5064543;28;19939;-73
2022/12/13 06:23:43;;;;;;;;;;;;;;;;;;5066147;28;20397;-73
2022/12/13 06:26:08;;;;;;;;;;;;;;;;;;5069929;28;19908;-73
2022/12/13 06:28:34;;;;;;;;;;;;;;;;;;5068630;28;19943;-74
2022/12/13 06:31:00;;;;;;;;;;;;;;;;;;5065629;28;20389;-74
2022/12/13 06:33:27;;;;;;;;;;;;;;;;;;5059352;28;19909;-74
2022/12/13 06:35:52;;;;;;;;;;;;;;;;;;5069687;28;20378;-73
2022/12/13 06:38:18;;;;;;;;;;;;;;;;;;5070055;28;19910;-74
2022/12/13 06:40:44;;;;;;;;;;;;;;;;;;5068330;28;20369;-73
2022/12/13 06:43:10;;;;;;;;;;;;;;;;;;5067207;28;19969;-73
2022/12/13 06:45:36;;;;;;;;;;;;;;;;;;5059297;28;19931;-73
2022/12/13 06:48:02;;;;;;;;;;;;;;;;;;5064267;28;19904;-73
2022/12/13 06:50:28;;;;;;;;;;;;;;;;;;5068411;28;20025;-74
2022/12/13 06:52:54;;;;;;;;;;;;;;;;;;5064864;28;19909;-74
2022/12/13 06:55:20;;;;;;;;;;;;;;;;;;5068919;28;19912;-74
2022/12/13 06:57:46;;;;;;;;;;;;;;;;;;5070785;28;19908;-74
2022/12/13 07:00:12;;;;;;;;;;;;;;;;;;5064019;28;20389;-74
2022/12/13 07:02:37;;;;;;;;;;;;;;;;;;5061556;28;19971;-74
2022/12/13 07:05:03;;;;;;;;;;;;;;;;;;5068011;28;19908;-74
2022/12/13 07:07:29;;;;;;;;;;;;;;;;;;5065255;28;19908;-74
2022/12/13 07:09:55;;;;;;;;;;;;;;;;;;5066804;28;19904;-74
2022/12/13 07:12:21;;;;;;;;;;;;;;;;;;5067040;28;19935;-74
2022/12/13 07:14:47;;;;;;;;;;;;;;;;;;5067263;28;19981;-74
2022/12/13 07:17:13;;;;;;;;;;;;;;;;;;5062090;28;19955;-74
2022/12/13 07:19:39;;;;;;;;;;;;;;;;;;5060733;28;19912;-74
2022/12/13 07:22:04;;;;;;;;;;;;;;;;;;5066772;28;19908;-74
2022/12/13 07:24:30;;;;;;;;;;;;;;;;;;5067490;28;20033;-74
2022/12/13 07:26:56;;;;;;;;;;;;;;;;;;5068071;28;20385;-74
2022/12/13 07:29:22;;;;;;;;;;;;;;;;;;5065414;28;19908;-74
2022/12/13 07:31:48;;;;;;;;;;;;;;;;;;5056374;28;19939;-74
2022/12/13 07:34:14;;;;;;;;;;;;;;;;;;5069076;28;19908;-74
2022/12/13 07:36:40;;;;;;;;;;;;;;;;;;5069360;28;19915;-74
2022/12/13 07:39:06;;;;;;;;;;;;;;;;;;5065535;28;20068;-75
2022/12/13 07:41:32;;;;;;;;;;;;;;;;;;5067926;28;20608;-75
2022/12/13 07:43:57;;;;;;;;;;;;;;;;;;5066862;28;19908;-74
2022/12/13 07:46:23;;;;;;;;;;;;;;;;;;5064074;28;19905;-75
2022/12/13 07:48:49;;;;;;;;;;;;;;;;;;5058966;28;19961;-75
2022/12/13 07:51:15;;;;;;;;;;;;;;;;;;5067064;28;19923;-74
2022/12/13 07:53:41;;;;;;;;;;;;;;;;;;5064443;28;19908;-75
2022/12/13 07:56:07;;;;;;;;;;;;;;;;;;5061753;28;20370;-74
2022/12/13 07:58:33;;;;;;;;;;;;;;;;;;5069021;28;19913;-75
2022/12/13 08:01:01;;;;;;;;;;;;;;;;;;5063222;28;19920;-75
2022/12/13 08:03:27;;;;;;;;;;;;;;;;;;5064712;28;19912;-75
2022/12/13 08:05:52;;;;;;;;;;;;;;;;;;5056141;28;19955;-75
2022/12/13 08:08:18;;;;;;;;;;;;;;;;;;5063696;28;19908;-75
2022/12/13 08:10:44;;;;;;;;;;;;;;;;;;5063178;28;19916;-75
2022/12/13 08:13:10;;;;;;;;;;;;;;;;;;5061625;28;19958;-75
2022/12/13 08:15:36;;;;;;;;;;;;;;;;;;5056477;28;20628;-75
2022/12/13 08:18:03;;;;;;;;;;;;;;;;;;5066255;28;19908;-74
2022/12/13 08:20:29;;;;;;;;;;;;;;;;;;5064137;28;20310;-74
2022/12/13 08:22:55;;;;;;;;;;;;;;;;;;5058704;28;19912;-76
2022/12/13 08:25:21;;;;;;;;;;;;;;;;;;5063907;28;19928;-76
2022/12/13 08:27:46;;;;;;;;;;;;;;;;;;5065055;28;20563;-76
2022/12/13 08:30:12;;;;;;;;;;;;;;;;;;5066261;28;19963;-75
2022/12/13 08:32:38;;;;;;;;;;;;;;;;;;5062974;28;19912;-75
2022/12/13 08:35:04;;;;;;;;;;;;;;;;;;5063121;28;19935;-75
2022/12/13 08:37:30;;;;;;;;;;;;;;;;;;5059707;28;19998;-75
2022/12/13 08:39:56;;;;;;;;;;;;;;;;;;5065702;28;19923;-75
2022/12/13 08:42:23;;;;;;;;;;;;;;;;;;5064998;28;20646;-75
2022/12/13 08:44:49;;;;;;;;;;;;;;;;;;5061560;28;19940;-76
2022/12/13 08:47:15;;;;;;;;;;;;;;;;;;5055024;28;20005;-75
2022/12/13 08:49:41;;;;;;;;;;;;;;;;;;5064852;28;19917;-76
2022/12/13 08:52:07;;;;;;;;;;;;;;;;;;5063814;28;20294;-76
2022/12/13 08:54:33;;;;;;;;;;;;;;;;;;5058971;28;20279;-76
2022/12/13 08:56:59;;;;;;;;;;;;;;;;;;5056283;28;19995;-75
2022/12/13 08:59:25;;;;;;;;;;;;;;;;;;5064306;28;20305;-76
2022/12/13 09:01:51;;;;;;;;;;;;;;;;;;5065129;28;20432;-80
2022/12/13 09:04:17;;;;;;;;;;;;;;;;;;5060596;28;19946;-75
2022/12/13 09:06:43;;;;;;;;;;;;;;;;;;5065755;28;19974;-75
2022/12/13 09:09:08;;;;;;;;;;;;;;;;;;5065306;28;20451;-75
2022/12/13 09:11:34;;;;;;;;;;;;;;;;;;5066440;28;19974;-76
2022/12/13 09:14:00;;;;;;;;;;;;;;;;;;5064912;28;19908;-75
2022/12/13 09:16:26;;;;;;;;;;;;;;;;;;5063604;28;20007;-75
2022/12/13 09:18:52;;;;;;;;;;;;;;;;;;5060007;28;19909;-76
2022/12/13 09:21:18;;;;;;;;;;;;;;;;;;5066082;28;19920;-77
2022/12/13 09:23:44;;;;;;;;;;;;;;;;;;5067929;28;19905;-79
2022/12/13 09:26:10;;;;;;;;;;;;;;;;;;5063351;28;20347;-77
2022/12/13 09:28:35;;;;;;;;;;;;;;;;;;5056245;28;19931;-77
2022/12/13 09:31:02;;;;;;;;;;;;;;;;;;5060687;28;19987;-76
2022/12/13 09:33:28;;;;;;;;;;;;;;;;;;5068005;28;19961;-77
2022/12/13 09:35:53;;;;;;;;;;;;;;;;;;5064925;28;20336;-77
2022/12/13 09:38:19;;;;;;;;;;;;;;;;;;5061735;28;20283;-83
2022/12/13 09:40:45;;;;;;;;;;;;;;;;;;5064933;28;19915;-79
2022/12/13 09:43:13;;;;;;;;;;;;;;;;;;5066297;28;20057;-76
2022/12/13 09:45:39;;;;;;;;;;;;;;;;;;5054588;28;19908;-78
2022/12/13 09:48:05;;;;;;;;;;;;;;;;;;5064926;28;20377;-76
2022/12/13 09:50:34;;;;;;;;;;;;;;;;;;5058338;28;19916;-76
2022/12/13 09:53:00;;;;;;;;;;;;;;;;;;5063187;28;20586;-76
2022/12/13 09:55:28;;;;;;;;;;;;;;;;;;5065651;28;20355;-76
2022/12/13 09:57:56;;;;;;;;;;;;;;;;;;5062889;28;20003;-76
2022/12/13 10:00:22;;;;;;;;;;;;;;;;;;5062117;28;21164;-76
2022/12/13 10:02:48;;;;;;;;;;;;;;;;;;5058051;28;19908;-76
2022/12/13 10:05:13;;;;;;;;;;;;;;;;;;5063682;28;20006;-75
2022/12/13 10:07:39;;;;;;;;;;;;;;;;;;5061571;28;19908;-75
2022/12/13 10:10:05;;;;;;;;;;;;;;;;;;5057377;28;19973;-76
2022/12/13 10:12:31;;;;;;;;;;;;;;;;;;5061621;28;19916;-76
2022/12/13 10:14:57;;;;;;;;;;;;;;;;;;5067487;28;20390;-76
2022/12/13 10:17:23;;;;;;;;;;;;;;;;;;5068192;28;20279;-80
2022/12/13 10:19:51;;;;;;;;;;;;;;;;;;5066652;28;20255;-76
2022/12/13 10:22:17;;;;;;;;;;;;;;;;;;5061028;28;20291;-76
2022/12/13 10:24:43;;;;;;;;;;;;;;;;;;5061940;28;19935;-76
2022/12/13 10:27:09;;;;;;;;;;;;;;;;;;5062912;28;20306;-76
2022/12/13 10:29:35;;;;;;;;;;;;;;;;;;5062187;28;19912;-76
2022/12/13 10:32:01;;;;;;;;;;;;;;;;;;5063795;28;19923;-76
2022/12/13 10:34:27;;;;;;;;;;;;;;;;;;5065044;28;19912;-77
2022/12/13 10:36:53;;;;;;;;;;;;;;;;;;5065948;28;20440;-76
2022/12/13 10:39:24;;;;;;;;;;;;;;;;;;5062488;28;19959;-75
2022/12/13 10:41:52;;;;;;;;;;;;;;;;;;5062730;28;20385;-75
2022/12/13 10:44:18;;;;;;;;;;;;;;;;;;5067563;28;19962;-76
2022/12/13 10:46:43;;;;;;;;;;;;;;;;;;5065330;28;19912;-76
2022/12/13 10:49:09;;;;;;;;;;;;;;;;;;5070318;28;19908;-76
2022/12/13 10:51:35;;;;;;;;;;;;;;;;;;5069900;28;19927;-74
2022/12/13 10:54:01;;;;;;;;;;;;;;;;;;5063919;28;19995;-74
2022/12/13 10:56:27;;;;;;;;;;;;;;;;;;5058834;28;20450;-76
2022/12/13 10:58:53;;;;;;;;;;;;;;;;;;5064338;28;20465;-75
2022/12/13 11:01:19;;;;;;;;;;;;;;;;;;5064027;28;20445;-73
2022/12/13 11:03:45;;;;;;;;;;;;;;;;;;5066933;28;19916;-74
2022/12/13 11:06:11;;;;;;;;;;;;;;;;;;5064816;28;19915;-73
2022/12/13 11:08:37;;;;;;;;;;;;;;;;;;5056495;28;20010;-75
2022/12/13 11:11:03;;;;;;;;;;;;;;;;;;5063974;28;20422;-73
2022/12/13 11:13:30;;;;;;;;;;;;;;;;;;5059166;28;19908;-73
2022/12/13 11:15:56;;;;;;;;;;;;;;;;;;5068201;28;20418;-74
2022/12/13 11:18:22;;;;;;;;;;;;;;;;;;5067661;28;19908;-74
2022/12/13 11:20:47;;;;;;;;;;;;;;;;;;5055181;28;20041;-73
2022/12/13 11:23:13;;;;;;;;;;;;;;;;;;5065925;28;19909;-74
2022/12/13 11:25:40;;;;;;;;;;;;;;;;;;5066420;28;19909;-76
2022/12/13 11:28:06;;;;;;;;;;;;;;;;;;5058129;28;20331;-73
2022/12/13 11:30:31;;;;;;;;;;;;;;;;;;5061323;28;19912;-74
2022/12/13 11:32:57;;;;;;;;;;;;;;;;;;5067670;28;20525;-74
2022/12/13 11:35:23;;;;;;;;;;;;;;;;;;5066776;28;20315;-75
2022/12/13 11:37:49;;;;;;;;;;;;;;;;;;5062259;28;19912;-74
2022/12/13 11:40:15;;;;;;;;;;;;;;;;;;5053510;28;19912;-74
2022/12/13 11:42:41;;;;;;;;;;;;;;;;;;5058779;28;20141;-74
2022/12/13 11:45:07;;;;;;;;;;;;;;;;;;5068354;28;19916;-74
2022/12/13 11:47:33;;;;;;;;;;;;;;;;;;5064022;28;19908;-75
2022/12/13 11:49:58;;;;;;;;;;;;;;;;;;5062667;28;19973;-75
2022/12/13 11:52:24;;;;;;;;;;;;;;;;;;5066897;28;19923;-74
2022/12/13 11:54:50;;;;;;;;;;;;;;;;;;5066478;28;20613;-74
2022/12/13 11:57:16;;;;;;;;;;;;;;;;;;5069756;28;19921;-74
2022/12/13 11:59:42;;;;;;;;;;;;;;;;;;5065268;28;19915;-75
2022/12/13 12:02:08;;;;;;;;;;;;;;;;;;5065941;28;19916;-74
2022/12/13 12:04:33;;;;;;;;;;;;;;;;;;5062788;28;20366;-74
2022/12/13 12:06:59;;;;;;;;;;;;;;;;;;5061445;28;19908;-74
2022/12/13 12:09:26;;;;;;;;;;;;;;;;;;5067865;28;19914;-74
2022/12/13 12:11:52;;;;;;;;;;;;;;;;;;5064249;28;20007;-75
2022/12/13 12:14:18;;;;;;;;;;;;;;;;;;5062319;28;20358;-76
2022/12/13 12:16:43;;;;;;;;;;;;;;;;;;5066836;28;19915;-76
2022/12/13 12:19:09;;;;;;;;;;;;;;;;;;5069066;28;20011;-77
2022/12/13 12:21:36;;;;;;;;;;;;;;;;;;5068822;28;19908;-76
2022/12/13 12:24:02;;;;;;;;;;;;;;;;;;5058004;28;19908;-76
2022/12/13 12:26:28;;;;;;;;;;;;;;;;;;5063243;28;19919;-76
2022/12/13 12:28:54;;;;;;;;;;;;;;;;;;5052035;28;20007;-76
2022/12/13 12:31:19;;;;;;;;;;;;;;;;;;5056177;28;19947;-77
2022/12/13 12:33:45;;;;;;;;;;;;;;;;;;5060914;28;19916;-76
2022/12/13 12:36:11;;;;;;;;;;;;;;;;;;5061828;28;19913;-76
2022/12/13 12:38:37;;;;;;;;;;;;;;;;;;5067162;28;19952;-76
2022/12/13 12:41:03;;;;;;;;;;;;;;;;;;5068802;28;19904;-76
2022/12/13 12:43:29;;;;;;;;;;;;;;;;;;5066517;28;19908;-76
2022/12/13 12:45:57;;;;;;;;;;;;;;;;;;5061389;28;19931;-77
2022/12/13 12:48:23;;;;;;;;;;;;;;;;;;5053948;28;19905;-77
2022/12/13 12:50:50;;;;;;;;;;;;;;;;;;5063499;28;19916;-77
2022/12/13 12:53:16;;;;;;;;;;;;;;;;;;5063947;28;19974;-76
2022/12/13 12:55:42;;;;;;;;;;;;;;;;;;5063741;28;20350;-77
2022/12/13 12:58:08;;;;;;;;;;;;;;;;;;5061077;28;19908;-77
2022/12/13 13:00:34;;;;;;;;;;;;;;;;;;5064050;28;19962;-76
2022/12/13 13:02:59;;;;;;;;;;;;;;;;;;5067004;28;19909;-76
2022/12/13 13:05:26;;;;;;;;;;;;;;;;;;5067237;28;19936;-76
2022/12/13 13:07:52;;;;;;;;;;;;;;;;;;5058564;28;19993;-78
2022/12/13 13:10:18;;;;;;;;;;;;;;;;;;5064556;28;19974;-76
2022/12/13 13:12:46;;;;;;;;;;;;;;;;;;5062403;28;19908;-77
2022/12/13 13:15:12;;;;;;;;;;;;;;;;;;5066450;28;19909;-77
2022/12/13 13:17:38;;;;;;;;;;;;;;;;;;5064918;28;19911;-76
2022/12/13 13:20:04;;;;;;;;;;;;;;;;;;5068266;28;19904;-77
2022/12/13 13:22:30;;;;;;;;;;;;;;;;;;5066434;28;20363;-77
2022/12/13 13:24:56;;;;;;;;;;;;;;;;;;5062445;28;19995;-77
2022/12/13 13:27:22;;;;;;;;;;;;;;;;;;5056973;28;19909;-77
2022/12/13 13:29:48;;;;;;;;;;;;;;;;;;5058381;28;20369;-77
2022/12/13 13:32:15;;;;;;;;;;;;;;;;;;5065281;28;20588;-76
2022/12/13 13:34:40;;;;;;;;;;;;;;;;;;5062740;28;19908;-77
2022/12/13 13:37:06;;;;;;;;;;;;;;;;;;5065901;28;19954;-77
2022/12/13 13:39:35;;;;;;;;;;;;;;;;;;5059457;28;19909;-77
2022/12/13 13:42:01;;;;;;;;;;;;;;;;;;5048887;28;19913;-77
2022/12/13 13:44:27;;;;;;;;;;;;;;;;;;5058168;28;19913;-77
2022/12/13 13:46:53;;;;;;;;;;;;;;;;;;5065830;28;19966;-77
2022/12/13 13:49:19;;;;;;;;;;;;;;;;;;5070749;28;19904;-78
2022/12/13 13:51:45;;;;;;;;;;;;;;;;;;5070290;28;19920;-77
2022/12/13 13:54:11;;;;;;;;;;;;;;;;;;5068381;28;19978;-77
2022/12/13 13:56:37;;;;;;;;;;;;;;;;;;5069736;28;20306;-77
2022/12/13 13:59:02;;;;;;;;;;;;;;;;;;5072055;28;20511;-77
2022/12/13 14:01:28;;;;;;;;;;;;;;;;;;5070814;28;20287;-77
2022/12/13 14:03:54;;;;;;;;;;;;;;;;;;5069691;28;20019;-77
2022/12/13 14:06:20;;;;;;;;;;;;;;;;;;5068690;28;19904;-77
2022/12/13 14:08:46;;;;;;;;;;;;;;;;;;5067129;28;20313;-77
2022/12/13 14:11:12;;;;;;;;;;;;;;;;;;5067182;28;19939;-77
2022/12/13 14:13:38;;;;;;;;;;;;;;;;;;5072427;28;20059;-77
2022/12/13 14:16:03;;;;;;;;;;;;;;;;;;5067631;28;19953;-77
2022/12/13 14:18:29;;;;;;;;;;;;;;;;;;5069936;28;20005;-76
2022/12/13 14:20:55;;;;;;;;;;;;;;;;;;5061402;28;20492;-74
2022/12/13 14:23:21;;;;;;;;;;;;;;;;;;5058807;28;20421;-76
2022/12/13 14:25:47;;;;;;;;;;;;;;;;;;5070606;28;19909;-76
2022/12/13 14:28:16;;;;;;;;;;;;;;;;;;5063944;28;19915;-76
2022/12/13 14:30:42;;;;;;;;;;;;;;;;;;5067905;28;20284;-76
2022/12/13 14:33:08;;;;;;;;;;;;;;;;;;5066780;28;20388;-76
2022/12/13 14:35:34;;;;;;;;;;;;;;;;;;5059386;28;20367;-77
2022/12/13 14:38:00;;;;;;;;;;;;;;;;;;5064638;28;19940;-76
2022/12/13 14:40:26;;;;;;;;;;;;;;;;;;5059394;28;19960;-75
2022/12/13 14:42:55;;;;;;;;;;;;;;;;;;5063366;28;19904;-76
2022/12/13 14:45:21;;;;;;;;;;;;;;;;;;5062879;28;19923;-75
2022/12/13 14:47:46;;;;;;;;;;;;;;;;;;5062910;28;19909;-75
2022/12/13 14:50:12;;;;;;;;;;;;;;;;;;5056813;28;19963;-75
2022/12/13 14:52:38;;;;;;;;;;;;;;;;;;5059677;28;19917;-76
2022/12/13 14:55:05;;;;;;;;;;;;;;;;;;5066738;28;19913;-75
2022/12/13 14:57:30;;;;;;;;;;;;;;;;;;5064299;28;19905;-76
2022/12/13 14:59:56;;;;;;;;;;;;;;;;;;5067900;28;19908;-75
2022/12/13 15:02:22;;;;;;;;;;;;;;;;;;5070610;28;19928;-75
2022/12/13 15:04:48;;;;;;;;;;;;;;;;;;5064282;28;19904;-76
2022/12/13 15:07:14;;;;;;;;;;;;;;;;;;5059569;28;19913;-76
2022/12/13 15:09:40;;;;;;;;;;;;;;;;;;5065566;28;20329;-76
2022/12/13 15:12:06;;;;;;;;;;;;;;;;;;5063601;28;19923;-77
2022/12/13 15:14:32;;;;;;;;;;;;;;;;;;5066553;28;19908;-76
2022/12/13 15:16:58;;;;;;;;;;;;;;;;;;5061909;28;19962;-76
2022/12/13 15:19:24;;;;;;;;;;;;;;;;;;5060631;28;19916;-77
2022/12/13 15:21:54;;;;;;;;;;;;;;;;;;5055474;28;19947;-78
2022/12/13 15:24:19;;;;;;;;;;;;;;;;;;5059255;28;19912;-73
2022/12/13 15:26:47;;;;;;;;;;;;;;;;;;5062765;28;19908;-74
2022/12/13 15:29:13;;;;;;;;;;;;;;;;;;5064860;28;19913;-76
2022/12/13 15:31:39;;;;;;;;;;;;;;;;;;5060834;28;20432;-73
2022/12/13 15:34:05;;;;;;;;;;;;;;;;;;5054262;28;20323;-74
2022/12/13 15:36:30;;;;;;;;;;;;;;;;;;5061769;28;19950;-73
2022/12/13 15:38:56;;;;;;;;;;;;;;;;;;5069678;28;20375;-74
2022/12/13 15:41:22;;;;;;;;;;;;;;;;;;5059194;28;20341;-79
2022/12/13 15:43:48;;;;;;;;;;;;;;;;;;5059545;28;19940;-74
2022/12/13 15:46:14;;;;;;;;;;;;;;;;;;5064869;28;19908;-74
2022/12/13 15:48:40;;;;;;;;;;;;;;;;;;5059975;28;19905;-74
2022/12/13 15:51:06;;;;;;;;;;;;;;;;;;5059418;28;19924;-73
2022/12/13 15:53:32;;;;;;;;;;;;;;;;;;5056216;28;19908;-73
2022/12/13 15:55:58;;;;;;;;;;;;;;;;;;5067003;28;19954;-75
2022/12/13 15:58:24;;;;;;;;;;;;;;;;;;5069478;28;19904;-75
2022/12/13 16:00:50;;;;;;;;;;;;;;;;;;5060314;28;19974;-75
2022/12/13 16:03:16;;;;;;;;;;;;;;;;;;5061888;28;19916;-76
2022/12/13 16:05:42;;;;;;;;;;;;;;;;;;5059290;28;19917;-75
2022/12/13 16:08:08;;;;;;;;;;;;;;;;;;5057420;28;19916;-76
2022/12/13 16:10:34;;;;;;;;;;;;;;;;;;5061616;28;19908;-77
2022/12/13 16:13:00;;;;;;;;;;;;;;;;;;5057863;28;20388;-84
2022/12/13 16:15:25;;;;;;;;;;;;;;;;;;5063103;28;19912;-77
2022/12/13 16:17:51;;;;;;;;;;;;;;;;;;5060012;28;20379;-85
2022/12/13 16:20:18;;;;;;;;;;;;;;;;;;5062012;28;20393;-78
2022/12/13 16:22:44;;;;;;;;;;;;;;;;;;5063530;28;20093;-75
2022/12/13 16:25:10;;;;;;;;;;;;;;;;;;5056438;28;19924;-77
2022/12/13 16:27:36;;;;;;;;;;;;;;;;;;5060363;28;19908;-77
2022/12/13 16:30:02;;;;;;;;;;;;;;;;;;5062664;28;20412;-77
2022/12/13 16:32:28;;;;;;;;;;;;;;;;;;5058286;28;20286;-77
2022/12/13 16:34:54;;;;;;;;;;;;;;;;;;5053327;28;20260;-77
2022/12/13 16:37:25;;;;;;;;;;;;;;;;;;5059220;28;19944;-77
2022/12/13 16:39:51;;;;;;;;;;;;;;;;;;5061504;28;19904;-77
2022/12/13 16:42:17;;;;;;;;;;;;;;;;;;5057315;28;19914;-76